createdAt,value
2023-03-29T00:00:32.882Z,9.60
2023-03-29T00:03:03.425Z,7.10
2023-03-29T00:05:33.923Z,6.20
2023-03-29T00:08:04.254Z,8.60
2023-03-29T00:10:33.628Z,8.83
2023-03-29T00:13:01.543Z,10.07
2023-03-29T00:15:29.581Z,6.27
2023-03-29T00:17:57.327Z,4.50
2023-03-29T00:20:26.433Z,9.17
2023-03-29T00:22:54.091Z,4.87
2023-03-29T00:25:21.782Z,8.00
2023-03-29T00:27:49.636Z,6.77
2023-03-29T00:30:17.512Z,4.90
2023-03-29T00:32:45.962Z,7.87
2023-03-29T00:35:13.649Z,9.53
2023-03-29T00:37:42.659Z,5.53
2023-03-29T00:40:12.739Z,8.77
2023-03-29T00:42:40.538Z,6.37
2023-03-29T00:45:20.439Z,6.27
2023-03-29T00:47:51.420Z,6.53
2023-03-29T00:50:25.729Z,9.60
2023-03-29T00:53:00.866Z,5.07
2023-03-29T00:55:32.868Z,7.50
2023-03-29T00:58:02.675Z,4.97
2023-03-29T01:00:34.386Z,7.83
2023-03-29T01:03:04.722Z,5.57
2023-03-29T01:05:37.635Z,4.37
2023-03-29T01:08:11.124Z,7.80
2023-03-29T01:10:44.964Z,7.77
2023-03-29T01:13:18.714Z,4.83
2023-03-29T01:15:47.888Z,8.87
2023-03-29T01:18:15.801Z,5.30
2023-03-29T01:21:04.909Z,4.83
2023-03-29T01:23:52.067Z,5.23
2023-03-29T01:26:27.091Z,6.23
2023-03-29T01:29:02.042Z,6.27
2023-03-29T01:31:33.423Z,4.10
2023-03-29T01:34:05.874Z,11.43
2023-03-29T01:36:38.854Z,10.03
2023-03-29T01:39:07.957Z,4.87
2023-03-29T01:41:42.669Z,5.00
2023-03-29T01:44:16.509Z,8.23
2023-03-29T01:46:47.658Z,7.40
2023-03-29T01:49:22.849Z,9.10
2023-03-29T01:51:54.564Z,8.30
2023-03-29T01:54:27.181Z,6.53
2023-03-29T01:56:57.026Z,8.57
2023-03-29T01:59:28.858Z,6.03
2023-03-29T02:02:00.352Z,8.40
2023-03-29T02:04:34.523Z,5.60
2023-03-29T02:07:05.136Z,4.90
2023-03-29T02:09:34.998Z,8.30
2023-03-29T02:12:04.517Z,5.83
2023-03-29T02:14:35.145Z,6.00
2023-03-29T02:17:16.562Z,6.00
2023-03-29T02:19:46.073Z,8.67
2023-03-29T02:22:16.523Z,7.47
2023-03-29T02:24:47.066Z,5.87
2023-03-29T02:27:14.998Z,6.80
2023-03-29T02:29:46.795Z,6.97
2023-03-29T02:32:20.610Z,4.93
2023-03-29T02:34:56.352Z,5.43
2023-03-29T02:37:30.111Z,6.07
2023-03-29T02:40:00.130Z,6.47
2023-03-29T02:42:29.712Z,4.70
2023-03-29T02:45:01.261Z,6.30
2023-03-29T02:47:33.185Z,8.30
2023-03-29T02:50:01.349Z,9.60
2023-03-29T02:52:35.240Z,8.23
2023-03-29T02:55:06.286Z,6.87
2023-03-29T02:57:35.603Z,3.77
2023-03-29T03:00:06.911Z,7.10
2023-03-29T03:02:35.506Z,6.53
2023-03-29T03:05:03.699Z,7.70
2023-03-29T03:07:31.415Z,5.63
2023-03-29T03:09:59.082Z,5.67
2023-03-29T03:12:27.165Z,5.53
2023-03-29T03:14:54.857Z,6.27
2023-03-29T03:17:24.612Z,10.43
2023-03-29T03:19:53.142Z,11.30
2023-03-29T03:22:20.868Z,6.50
2023-03-29T03:24:49.278Z,11.47
2023-03-29T03:27:17.006Z,5.30
2023-03-29T03:29:44.712Z,9.80
2023-03-29T03:32:12.439Z,6.60
2023-03-29T03:34:41.461Z,8.63
2023-03-29T03:37:11.908Z,6.63
2023-03-29T03:39:39.630Z,8.23
2023-03-29T03:42:08.339Z,4.90
2023-03-29T03:44:36.505Z,6.37
2023-03-29T03:47:05.681Z,9.50
2023-03-29T03:49:33.420Z,8.23
2023-03-29T03:52:02.590Z,8.10
2023-03-29T03:54:30.323Z,8.70
2023-03-29T03:56:58.110Z,5.67
2023-03-29T03:59:26.581Z,9.57
2023-03-29T04:01:54.339Z,8.83
2023-03-29T04:04:23.293Z,9.17
2023-03-29T04:06:51.238Z,8.70
2023-03-29T04:09:20.682Z,8.93
2023-03-29T04:11:49.633Z,8.80
2023-03-29T04:14:17.300Z,9.03
2023-03-29T04:16:44.932Z,8.93
2023-03-29T04:19:12.928Z,10.70
2023-03-29T04:21:40.749Z,11.17
2023-03-29T04:24:08.929Z,9.40
2023-03-29T04:26:37.975Z,10.33
2023-03-29T04:29:05.753Z,8.77
2023-03-29T04:31:33.655Z,11.73
2023-03-29T04:34:01.591Z,11.43
2023-03-29T04:36:29.258Z,10.53
2023-03-29T04:38:57.001Z,10.33
2023-03-29T04:41:24.936Z,12.67
2023-03-29T04:43:55.994Z,11.87
2023-03-29T04:46:25.489Z,12.00
2023-03-29T04:48:53.870Z,9.17
2023-03-29T04:51:22.431Z,12.33
2023-03-29T04:53:50.967Z,9.53
2023-03-29T04:56:19.049Z,11.97
2023-03-29T04:58:46.759Z,12.03
2023-03-29T05:01:15.829Z,16.13
2023-03-29T05:03:43.779Z,11.17
2023-03-29T05:06:12.147Z,11.50
2023-03-29T05:08:41.249Z,11.83
2023-03-29T05:11:10.270Z,13.33
2023-03-29T05:13:38.960Z,12.13
2023-03-29T05:16:07.894Z,10.33
2023-03-29T05:18:37.089Z,16.97
2023-03-29T05:21:06.355Z,14.23
2023-03-29T05:23:34.507Z,14.23
2023-03-29T05:26:02.641Z,11.07
2023-03-29T05:28:30.468Z,12.83
2023-03-29T05:31:02.545Z,15.83
2023-03-29T05:33:30.863Z,14.27
2023-03-29T05:36:04.504Z,13.43
2023-03-29T05:38:32.805Z,13.93
2023-03-29T05:41:01.790Z,11.67
2023-03-29T05:43:30.066Z,12.57
2023-03-29T05:45:58.300Z,11.70
2023-03-29T05:48:27.038Z,12.03
2023-03-29T05:50:56.299Z,13.83
2023-03-29T05:53:27.097Z,12.93
2023-03-29T05:55:55.356Z,11.53
2023-03-29T05:58:26.634Z,11.97
2023-03-29T06:00:54.427Z,11.43
2023-03-29T06:03:25.458Z,11.27
2023-03-29T06:05:58.616Z,16.00
2023-03-29T06:08:28.589Z,14.77
2023-03-29T06:11:02.505Z,10.27
2023-03-29T06:13:33.506Z,10.53
2023-03-29T06:16:02.117Z,10.90
2023-03-29T06:18:30.022Z,13.67
2023-03-29T06:20:57.737Z,11.17
2023-03-29T06:23:27.041Z,9.73
2023-03-29T06:25:55.364Z,11.43
2023-03-29T06:28:23.969Z,8.97
2023-03-29T06:30:53.459Z,11.70
2023-03-29T06:33:21.534Z,9.93
2023-03-29T06:35:50.507Z,10.43
2023-03-29T06:38:18.261Z,11.37
2023-03-29T06:40:48.203Z,11.33
2023-03-29T06:43:15.850Z,9.00
2023-03-29T06:45:43.692Z,9.37
2023-03-29T06:48:12.278Z,10.40
2023-03-29T06:50:40.017Z,9.30
2023-03-29T06:53:07.716Z,8.17
2023-03-29T06:55:36.038Z,7.67
2023-03-29T06:58:05.227Z,10.93
2023-03-29T07:00:35.764Z,10.27
2023-03-29T07:03:09.792Z,10.80
2023-03-29T07:05:40.814Z,9.27
2023-03-29T07:08:16.387Z,10.43
2023-03-29T07:10:47.395Z,8.17
2023-03-29T07:13:17.272Z,10.27
2023-03-29T07:15:45.830Z,9.47
2023-03-29T07:18:13.600Z,8.47
2023-03-29T07:20:42.483Z,11.63
2023-03-29T07:23:11.398Z,8.87
2023-03-29T07:25:39.602Z,8.50
2023-03-29T07:28:07.527Z,8.87
2023-03-29T07:30:37.197Z,7.40
2023-03-29T07:33:05.318Z,7.10
2023-03-29T07:35:33.224Z,8.10
2023-03-29T07:38:01.070Z,8.33
2023-03-29T07:40:29.202Z,8.10
2023-03-29T07:42:57.598Z,8.17
2023-03-29T07:45:29.111Z,11.47
2023-03-29T07:48:00.020Z,7.80
2023-03-29T07:50:28.730Z,8.47
2023-03-29T07:52:56.855Z,7.17
2023-03-29T07:55:24.759Z,6.80
2023-03-29T07:57:53.537Z,8.63
2023-03-29T08:00:22.383Z,7.47
2023-03-29T08:02:52.316Z,5.90
2023-03-29T08:05:37.739Z,5.77
2023-03-29T08:08:09.697Z,7.60
2023-03-29T08:10:39.367Z,5.97
2023-03-29T08:13:09.163Z,6.53
2023-03-29T08:15:39.016Z,6.23
2023-03-29T08:18:07.282Z,6.23
2023-03-29T08:20:36.430Z,5.83
2023-03-29T08:23:04.196Z,6.50
2023-03-29T08:25:31.887Z,8.33
2023-03-29T08:27:59.949Z,8.03
2023-03-29T08:30:28.187Z,6.53
2023-03-29T08:32:56.446Z,7.27
2023-03-29T08:35:24.185Z,6.03
2023-03-29T08:37:53.189Z,9.30
2023-03-29T08:40:26.699Z,6.30
2023-03-29T08:43:08.214Z,6.30
2023-03-29T08:45:45.116Z,5.47
2023-03-29T08:48:23.767Z,7.60
2023-03-29T08:50:54.959Z,8.80
2023-03-29T08:53:30.634Z,7.03
2023-03-29T08:56:02.640Z,6.30
2023-03-29T08:58:35.246Z,7.67
2023-03-29T09:01:06.234Z,8.20
2023-03-29T09:03:39.136Z,8.33
2023-03-29T09:06:09.625Z,7.30
2023-03-29T09:08:42.083Z,7.57
2023-03-29T09:11:28.968Z,6.87
2023-03-29T09:14:05.909Z,6.37
2023-03-29T09:16:41.837Z,8.47
2023-03-29T09:19:20.939Z,5.90
2023-03-29T09:21:57.936Z,6.03
2023-03-29T09:24:39.863Z,6.03
2023-03-29T09:27:11.364Z,8.53
2023-03-29T09:29:53.510Z,8.10
2023-03-29T09:32:23.810Z,6.87
2023-03-29T09:35:01.909Z,6.97
2023-03-29T09:37:34.196Z,5.77
2023-03-29T09:40:12.084Z,11.33
2023-03-29T09:42:40.849Z,7.20
2023-03-29T09:45:09.848Z,7.77
2023-03-29T09:47:41.235Z,6.40
2023-03-29T09:50:27.799Z,9.40
2023-03-29T09:52:59.182Z,8.43
2023-03-29T09:55:31.138Z,7.97
2023-03-29T09:58:01.777Z,7.50
2023-03-29T10:00:30.082Z,6.63
2023-03-29T10:03:00.244Z,9.07
2023-03-29T10:05:37.756Z,9.77
2023-03-29T10:08:19.869Z,8.17
2023-03-29T10:10:49.606Z,6.70
2023-03-29T10:13:22.810Z,10.33
2023-03-29T10:16:03.529Z,9.07
2023-03-29T10:18:32.224Z,9.23
2023-03-29T10:21:01.223Z,10.00
2023-03-29T10:23:33.278Z,9.00
2023-03-29T10:26:04.634Z,8.17
2023-03-29T10:28:34.089Z,9.33
2023-03-29T10:31:04.002Z,10.17
2023-03-29T10:33:34.925Z,10.10
2023-03-29T10:36:05.934Z,9.60
2023-03-29T10:38:37.241Z,8.30
2023-03-29T10:41:09.958Z,11.07
2023-03-29T10:43:40.421Z,10.87
2023-03-29T10:46:11.052Z,10.50
2023-03-29T10:48:39.055Z,8.70
2023-03-29T10:51:07.620Z,9.37
2023-03-29T10:53:37.630Z,7.43
2023-03-29T10:56:25.564Z,12.10
2023-03-29T10:59:18.282Z,9.17
2023-03-29T11:01:57.021Z,14.87
2023-03-29T11:04:37.636Z,11.37
2023-03-29T11:07:23.246Z,8.93
2023-03-29T11:09:58.678Z,9.33
2023-03-29T11:12:35.614Z,9.13
2023-03-29T11:15:20.009Z,9.03
2023-03-29T11:18:00.198Z,9.00
2023-03-29T11:20:39.079Z,13.03
2023-03-29T11:23:24.026Z,11.57
2023-03-29T11:26:02.375Z,10.13
2023-03-29T11:28:37.684Z,9.63
2023-03-29T11:31:17.360Z,9.57
2023-03-29T11:33:57.022Z,11.13
2023-03-29T11:36:33.699Z,11.57
2023-03-29T11:39:09.487Z,11.17
2023-03-29T11:41:41.314Z,8.77
2023-03-29T11:44:18.348Z,11.20
2023-03-29T11:46:49.528Z,12.63
2023-03-29T11:49:22.059Z,10.37
2023-03-29T11:51:55.591Z,12.70
2023-03-29T11:54:28.817Z,12.07
2023-03-29T11:57:01.698Z,9.93
2023-03-29T11:59:35.763Z,11.40
2023-03-29T12:02:12.247Z,10.37
2023-03-29T12:04:44.554Z,10.20
2023-03-29T12:07:18.366Z,11.67
2023-03-29T12:09:50.571Z,11.30
2023-03-29T12:12:25.052Z,9.97
2023-03-29T12:15:03.752Z,9.17
2023-03-29T12:17:35.363Z,10.87
2023-03-29T12:20:12.377Z,10.50
2023-03-29T12:22:41.085Z,10.60
2023-03-29T12:25:18.822Z,11.17
2023-03-29T12:27:56.154Z,10.47
2023-03-29T12:30:50.700Z,11.63
2023-03-29T12:33:33.479Z,13.07
2023-03-29T12:36:18.836Z,8.40
2023-03-29T12:38:48.195Z,11.97
2023-03-29T12:41:20.002Z,11.33
2023-03-29T12:43:48.184Z,10.30
2023-03-29T12:46:20.173Z,8.60
2023-03-29T12:48:50.689Z,10.57
2023-03-29T12:51:20.506Z,8.80
2023-03-29T12:53:51.513Z,11.27
2023-03-29T12:56:21.969Z,9.53
2023-03-29T12:59:06.640Z,12.57
2023-03-29T13:01:37.903Z,10.50
2023-03-29T13:04:20.410Z,8.70
2023-03-29T13:07:03.920Z,10.07
2023-03-29T13:09:35.618Z,10.90
2023-03-29T13:12:10.176Z,9.27
2023-03-29T13:14:43.671Z,11.30
2023-03-29T13:17:28.661Z,9.43
2023-03-29T13:20:19.693Z,10.03
2023-03-29T13:22:58.000Z,9.20
2023-03-29T13:25:42.067Z,17.87
2023-03-29T13:28:19.772Z,11.30
2023-03-29T13:30:59.335Z,9.50
2023-03-29T13:33:55.352Z,10.60
2023-03-29T13:36:36.359Z,9.77
2023-03-29T13:39:07.854Z,8.57
2023-03-29T13:41:49.154Z,9.70
2023-03-29T13:44:27.853Z,7.93
2023-03-29T13:47:17.418Z,8.23
2023-03-29T13:49:53.492Z,7.40
2023-03-29T13:52:27.249Z,8.83
2023-03-29T13:55:01.127Z,8.70
2023-03-29T13:57:36.094Z,8.40
2023-03-29T14:00:11.744Z,9.43
2023-03-29T14:02:49.187Z,8.53
2023-03-29T14:05:22.650Z,9.97
2023-03-29T14:07:52.682Z,9.90
2023-03-29T14:10:25.593Z,9.43
2023-03-29T14:12:54.091Z,9.53
2023-03-29T14:15:28.522Z,10.30
2023-03-29T14:18:00.324Z,8.93
2023-03-29T14:20:32.366Z,9.40
2023-03-29T14:23:00.127Z,10.20
2023-03-29T14:25:30.374Z,10.10
2023-03-29T14:27:58.144Z,10.10
2023-03-29T14:30:29.074Z,11.60
2023-03-29T14:32:57.360Z,10.97
2023-03-29T14:35:33.207Z,12.27
2023-03-29T14:38:03.592Z,10.47
2023-03-29T14:40:32.591Z,10.33
2023-03-29T14:43:05.322Z,11.57
2023-03-29T14:45:33.294Z,12.40
2023-03-29T14:48:01.671Z,10.87
2023-03-29T14:50:32.361Z,10.67
2023-03-29T14:53:01.828Z,10.60
2023-03-29T14:55:30.939Z,12.07
2023-03-29T14:58:00.132Z,10.67
2023-03-29T15:00:30.225Z,13.70
2023-03-29T15:03:00.536Z,10.93
2023-03-29T15:05:38.684Z,11.47
2023-03-29T15:08:09.854Z,11.23
2023-03-29T15:10:39.079Z,12.27
2023-03-29T15:13:09.365Z,11.27
2023-03-29T15:15:39.104Z,12.03
2023-03-29T15:18:09.051Z,11.80
2023-03-29T15:20:40.692Z,10.70
2023-03-29T15:23:23.357Z,11.77
2023-03-29T15:25:55.314Z,13.53
2023-03-29T15:28:28.629Z,11.50
2023-03-29T15:33:35.702Z,11.37
2023-03-29T15:36:07.171Z,12.93
2023-03-29T15:38:43.304Z,10.80
2023-03-29T15:41:13.368Z,11.40
2023-03-29T15:43:41.283Z,15.40
2023-03-29T15:46:09.395Z,16.50
2023-03-29T15:48:37.388Z,17.27
2023-03-29T15:51:07.499Z,12.67
2023-03-29T15:53:36.240Z,14.97
2023-03-29T15:56:08.032Z,12.53
2023-03-29T15:58:36.885Z,12.43
2023-03-29T16:01:13.084Z,17.13
2023-03-29T16:03:41.622Z,15.70
2023-03-29T16:06:13.177Z,14.37
2023-03-29T16:08:41.834Z,12.37
2023-03-29T16:11:09.800Z,14.50
2023-03-29T16:13:37.484Z,17.03
2023-03-29T16:16:05.933Z,13.07
2023-03-29T16:18:33.816Z,12.57
2023-03-29T16:21:01.886Z,16.27
2023-03-29T16:23:30.958Z,14.13
2023-03-29T16:25:59.242Z,13.13
2023-03-29T16:28:27.105Z,13.20
2023-03-29T16:30:54.933Z,19.07
2023-03-29T16:33:23.018Z,14.20
2023-03-29T16:35:51.093Z,16.37
2023-03-29T16:38:18.822Z,13.80
2023-03-29T16:40:47.951Z,16.33
2023-03-29T16:43:17.058Z,16.93
2023-03-29T16:45:44.883Z,15.70
2023-03-29T16:48:14.378Z,17.03
2023-03-29T16:50:42.171Z,14.27
2023-03-29T16:53:10.343Z,19.37
2023-03-29T16:55:39.342Z,14.33
2023-03-29T16:58:08.529Z,15.97
2023-03-29T17:00:36.674Z,21.73
2023-03-29T17:03:04.566Z,13.73
2023-03-29T17:05:33.751Z,13.80
2023-03-29T17:08:02.209Z,14.43
2023-03-29T17:10:29.990Z,15.57
2023-03-29T17:12:57.848Z,16.43
2023-03-29T17:15:26.973Z,14.73
2023-03-29T17:17:54.801Z,18.80
2023-03-29T17:20:22.534Z,14.10
2023-03-29T17:22:52.170Z,15.30
2023-03-29T17:25:19.998Z,16.40
2023-03-29T17:27:47.819Z,18.23
2023-03-29T17:30:16.607Z,15.07
2023-03-29T17:32:45.875Z,15.33
2023-03-29T17:35:14.296Z,16.17
2023-03-29T17:37:42.981Z,16.20
2023-03-29T17:40:13.766Z,14.67
2023-03-29T17:42:41.743Z,13.80
2023-03-29T17:45:11.282Z,15.33
2023-03-29T17:47:39.157Z,15.47
2023-03-29T17:50:11.181Z,14.30
2023-03-29T17:52:40.372Z,16.90
2023-03-29T17:55:11.231Z,21.93
2023-03-29T17:57:39.343Z,14.87
2023-03-29T18:00:10.620Z,17.33
2023-03-29T18:02:38.511Z,15.10
2023-03-29T18:05:09.443Z,17.80
2023-03-29T18:07:37.621Z,16.17
2023-03-29T18:10:06.336Z,14.13
2023-03-29T18:12:34.103Z,14.47
2023-03-29T18:15:02.462Z,14.83
2023-03-29T18:17:31.283Z,15.50
2023-03-29T18:19:59.192Z,14.57
2023-03-29T18:22:28.631Z,14.77
2023-03-29T18:24:56.400Z,15.30
2023-03-29T18:27:25.374Z,16.37
2023-03-29T18:29:55.160Z,16.07
2023-03-29T18:32:23.212Z,15.93
2023-03-29T18:34:50.970Z,14.13
2023-03-29T18:37:18.642Z,15.83
2023-03-29T18:39:48.041Z,16.33
2023-03-29T18:42:15.851Z,16.23
2023-03-29T18:44:43.657Z,15.10
2023-03-29T18:47:11.639Z,15.60
2023-03-29T18:49:40.670Z,15.90
2023-03-29T18:52:09.099Z,14.87
2023-03-29T18:54:37.004Z,14.60
2023-03-29T18:57:06.375Z,15.90
2023-03-29T18:59:35.869Z,15.53
2023-03-29T19:02:03.741Z,15.40
2023-03-29T19:04:31.701Z,18.57
2023-03-29T19:07:01.377Z,17.77
2023-03-29T19:09:29.388Z,16.00
2023-03-29T19:11:57.212Z,15.70
2023-03-29T19:14:26.357Z,16.80
2023-03-29T19:16:54.430Z,17.27
2023-03-29T19:19:23.869Z,16.70
2023-03-29T19:21:52.811Z,18.17
2023-03-29T19:24:20.842Z,17.97
2023-03-29T19:26:50.093Z,23.17
2023-03-29T19:29:17.862Z,19.67
2023-03-29T19:31:47.261Z,42.53
2023-03-29T19:34:15.944Z,31.20
2023-03-29T19:36:43.614Z,20.33
2023-03-29T19:39:11.383Z,20.23
2023-03-29T19:41:41.357Z,18.67
2023-03-29T19:44:10.034Z,19.87
2023-03-29T19:46:37.859Z,20.93
2023-03-29T19:49:08.400Z,19.43
2023-03-29T19:51:36.278Z,21.73
2023-03-29T19:54:05.157Z,20.90
2023-03-29T19:56:33.099Z,21.10
2023-03-29T19:59:00.851Z,21.77
2023-03-29T20:01:32.196Z,20.77
2023-03-29T20:04:00.177Z,21.17
2023-03-29T20:06:29.360Z,22.53
2023-03-29T20:08:57.699Z,21.13
2023-03-29T20:11:25.637Z,21.73
2023-03-29T20:13:53.353Z,22.47
2023-03-29T20:16:24.322Z,20.97
2023-03-29T20:18:53.988Z,21.93
2023-03-29T20:21:21.778Z,23.87
2023-03-29T20:23:51.352Z,21.60
2023-03-29T20:26:19.051Z,23.37
2023-03-29T20:28:47.233Z,23.57
2023-03-29T20:31:15.162Z,22.27
2023-03-29T20:33:44.451Z,24.37
2023-03-29T20:36:12.443Z,25.03
2023-03-29T20:38:40.525Z,25.00
2023-03-29T20:41:10.835Z,25.73
2023-03-29T20:43:38.634Z,23.33
2023-03-29T20:46:14.322Z,28.73
2023-03-29T20:48:52.976Z,26.63
2023-03-29T20:51:21.556Z,24.77
2023-03-29T20:53:50.666Z,23.33
2023-03-29T20:56:20.829Z,26.30
2023-03-29T20:58:48.491Z,26.03
2023-03-29T21:01:16.218Z,26.57
2023-03-29T21:03:44.005Z,26.80
2023-03-29T21:06:14.033Z,26.97
2023-03-29T21:08:42.580Z,25.97
2023-03-29T21:11:13.026Z,28.40
2023-03-29T21:13:42.125Z,24.57
2023-03-29T21:16:10.725Z,26.37
2023-03-29T21:18:39.087Z,24.73
2023-03-29T21:21:07.994Z,28.10
2023-03-29T21:23:36.329Z,28.40
2023-03-29T21:26:04.994Z,27.93
2023-03-29T21:28:32.735Z,32.73
2023-03-29T21:31:05.217Z,34.57
2023-03-29T21:33:33.316Z,30.60
2023-03-29T21:36:02.035Z,33.17
2023-03-29T21:38:30.002Z,31.13
2023-03-29T21:40:58.403Z,33.83
2023-03-29T21:43:26.384Z,33.87
2023-03-29T21:45:54.131Z,35.00
2023-03-29T21:48:23.246Z,31.97
2023-03-29T21:50:51.156Z,33.17
2023-03-29T21:53:19.053Z,33.77
2023-03-29T21:55:49.133Z,35.63
2023-03-29T21:58:17.047Z,37.23
2023-03-29T22:00:44.896Z,34.47
2023-03-29T22:03:13.211Z,37.37
2023-03-29T22:09:28.965Z,34.93
2023-03-29T22:11:56.904Z,41.90
2023-03-29T22:14:24.646Z,41.63
2023-03-29T22:16:52.530Z,37.73
2023-03-29T22:19:20.415Z,41.87
2023-03-29T22:21:48.656Z,43.83
2023-03-29T22:24:17.362Z,41.83
2023-03-29T22:26:46.433Z,37.97
2023-03-29T22:29:14.118Z,45.60
2023-03-29T22:31:41.977Z,42.60
2023-03-29T22:34:09.949Z,38.23
2023-03-29T22:36:37.887Z,38.03
2023-03-29T22:39:06.516Z,44.20
2023-03-29T22:41:34.210Z,39.83
2023-03-29T22:44:03.540Z,39.60
2023-03-29T22:46:31.635Z,38.53
2023-03-29T22:48:59.443Z,38.80
2023-03-29T22:51:27.266Z,42.73
2023-03-29T22:53:55.028Z,41.37
2023-03-29T22:56:23.217Z,37.20
2023-03-29T22:58:51.005Z,40.60
2023-03-29T23:01:20.152Z,34.80
2023-03-29T23:03:47.860Z,36.00
2023-03-29T23:06:15.532Z,34.13
2023-03-29T23:08:43.220Z,36.07
2023-03-29T23:11:11.507Z,43.07
2023-03-29T23:13:39.989Z,33.73
2023-03-29T23:16:08.446Z,34.80
2023-03-29T23:18:37.960Z,29.57
2023-03-29T23:21:07.556Z,32.50
2023-03-29T23:23:36.151Z,31.80
2023-03-29T23:26:03.982Z,34.00
2023-03-29T23:28:34.285Z,30.83
2023-03-29T23:31:04.572Z,32.27
2023-03-29T23:33:35.061Z,31.43
2023-03-29T23:36:07.772Z,28.83
2023-03-29T23:38:37.523Z,28.07
2023-03-29T23:41:08.404Z,30.13
2023-03-29T23:43:37.573Z,26.57
2023-03-29T23:46:07.636Z,31.63
2023-03-29T23:48:35.782Z,27.73
2023-03-29T23:51:07.745Z,26.90
2023-03-29T23:53:35.520Z,28.40
2023-03-29T23:56:05.752Z,25.50
2023-03-29T23:58:34.946Z,22.77
